Greeley, IA (52050)

3:24 PM CDT on September 20, 2014 (GMT -0500)
KIASTRAW2 | Change Station
CLOSE
Current Station
Personal Weather Station
Location: Strawberry Point, IA
Elevation: 1220 ft
Nearby Weather Stations

Elev 1220 ft 42.68 °N, 91.53 °W | Updated 1 minute ago

Partly Cloudy
Partly Cloudy
77.0 °F
Feels Like 79 °F
N
9.0
Wind Variable Wind from WSW
Gusts 12.0 mph

Today
High -- | Low -- °F
--% Chance of Precip.
Yesterday
High -- | Low -- °F
Precip. -- in
6:50 AM 7:06 PM
Waning Crescent, 10% visible
Pressure 29.81 in
Visibility 10.0 miles
Clouds Clear
Heat Index 79 °F
Dew Point 63 °F
Humidity 63%
Rainfall -999.00 in
Snow Depth Not available.
UV 5 out of 12
Pollen 4.10 out of 12
Air Quality Not available.
Flu Activity Not available.
METAR KMXO 202015Z AUTO 24009G14KT 10SM CLR 25/19 A2981 RMK AO2

More Conditions Fewer Conditions

Pressure 29.81 in
Visibility 10.0 miles
Clouds Clear
Heat Index 79 °F
Dew Point 63 °F
Humidity 63%
Rainfall -999.00 in
Snow Depth Not available.
UV 5 out of 12
Pollen 4.10 out of 12
Air Quality Not available.
Flu Activity Not available.
METAR KMXO 202015Z AUTO 24009G14KT 10SM CLR 25/19 A2981 RMK AO2

More Conditions Fewer Conditions

10-Day Weather Forecast

Almanac

Astronomy

Sep. 20, 2014 Rise Set
Actual Time 6:50 AM CDT 7:06 PM CDT
Civil Twilight 6:22 AM CDT 7:34 PM CDT
Nautical Twilight 5:49 AM CDT 8:07 PM CDT
Astronomical Twilight 5:15 AM CDT 8:41 PM CDT
Moon 3:26 AM CDT 5:12 PM CDT
Length of Visible Light 13h 11m
Length of Day
12h 15m
Tomorrow will be 2m 51s shorter.
Waning Crescent, 10% of the Moon is Illuminated
Today
Waning Crescent
Sep 24
New
Oct 1
First Quarter
Oct 8
Full
Oct 15
Last Quarter

Today's Extremes

State Highs State Lows

Community

WunderPhotos

Upload Photos

1,754,937 photos uploaded!

WunderBlogs® & News

Nearby

Snow Depth

Station Depth Elevation
No new snow has been reported.

Earthquake Activity

City Distance Mag. Time & Date
No recent earthquake activity has been reported nearby.
Minimum magnitude displayed is 2.5.

Coastal Water Temperatures

Place Temperature
No Stations Reporting

Nearby Weather Stations